sensor_id;sensor_type;location;lat;lon;timestamp;pressure;altitude;pressure_sealevel;temperature;humidity
23303;BME280;11820;48.738;9.092;2023-03-14T00:00:56;94697.34;;;11.06;nan
23303;BME280;11820;48.738;9.092;2023-03-14T00:03:21;94686.00;;;11.07;nan
23303;BME280;11820;48.738;9.092;2023-03-14T00:05:46;94708.50;;;10.90;nan
23303;BME280;11820;48.738;9.092;2023-03-14T00:08:12;94703.56;;;11.05;nan
23303;BME280;11820;48.738;9.092;2023-03-14T00:10:37;94697.22;;;10.96;nan
23303;BME280;11820;48.738;9.092;2023-03-14T00:13:03;94685.44;;;11.05;nan
23303;BME280;11820;48.738;9.092;2023-03-14T00:15:28;94687.19;;;11.00;nan
23303;BME280;11820;48.738;9.092;2023-03-14T00:17:54;94681.06;;;11.06;nan
23303;BME280;11820;48.738;9.092;2023-03-14T00:20:19;94674.25;;;11.00;nan
23303;BME280;11820;48.738;9.092;2023-03-14T00:22:44;94664.47;;;10.85;nan
23303;BME280;11820;48.738;9.092;2023-03-14T00:25:11;94658.00;;;10.88;nan
23303;BME280;11820;48.738;9.092;2023-03-14T00:27:36;94661.63;;;11.03;nan
23303;BME280;11820;48.738;9.092;2023-03-14T00:30:03;94665.56;;;11.06;nan
23303;BME280;11820;48.738;9.092;2023-03-14T00:32:28;94674.47;;;10.98;nan
23303;BME280;11820;48.738;9.092;2023-03-14T00:34:54;94676.50;;;10.96;nan
23303;BME280;11820;48.738;9.092;2023-03-14T00:37:19;94676.19;;;10.93;nan
23303;BME280;11820;48.738;9.092;2023-03-14T00:39:44;94694.88;;;11.11;nan
23303;BME280;11820;48.738;9.092;2023-03-14T00:42:10;94681.84;;;11.06;nan
23303;BME280;11820;48.738;9.092;2023-03-14T00:44:35;94680.28;;;11.05;nan
23303;BME280;11820;48.738;9.092;2023-03-14T00:47:00;94677.75;;;10.94;nan
23303;BME280;11820;48.738;9.092;2023-03-14T00:49:26;94679.44;;;11.00;nan
23303;BME280;11820;48.738;9.092;2023-03-14T00:51:51;94687.34;;;11.10;nan
23303;BME280;11820;48.738;9.092;2023-03-14T00:54:18;94688.75;;;11.17;nan
23303;BME280;11820;48.738;9.092;2023-03-14T00:56:44;94683.25;;;11.14;nan
23303;BME280;11820;48.738;9.092;2023-03-14T00:59:09;94692.19;;;10.90;nan
23303;BME280;11820;48.738;9.092;2023-03-14T01:01:35;94699.72;;;11.08;nan
23303;BME280;11820;48.738;9.092;2023-03-14T01:04:01;94699.41;;;11.04;nan
23303;BME280;11820;48.738;9.092;2023-03-14T01:06:27;94715.38;;;11.01;nan
23303;BME280;11820;48.738;9.092;2023-03-14T01:08:54;94707.56;;;11.13;nan
23303;BME280;11820;48.738;9.092;2023-03-14T01:11:22;94707.56;;;11.13;nan
23303;BME280;11820;48.738;9.092;2023-03-14T01:13:48;94710.22;;;11.01;nan
23303;BME280;11820;48.738;9.092;2023-03-14T01:16:15;94695.03;;;11.21;nan
23303;BME280;11820;48.738;9.092;2023-03-14T01:18:41;94690.69;;;11.10;nan
23303;BME280;11820;48.738;9.092;2023-03-14T01:21:21;94694.78;;;11.23;nan
23303;BME280;11820;48.738;9.092;2023-03-14T01:23:48;94669.00;;;11.11;nan
23303;BME280;11820;48.738;9.092;2023-03-14T01:26:16;94662.81;;;11.12;nan
23303;BME280;11820;48.738;9.092;2023-03-14T01:28:41;94653.69;;;11.26;nan
23303;BME280;11820;48.738;9.092;2023-03-14T01:31:09;94643.88;;;11.28;nan
23303;BME280;11820;48.738;9.092;2023-03-14T01:33:35;94657.78;;;11.22;nan
23303;BME280;11820;48.738;9.092;2023-03-14T01:36:00;94652.38;;;11.24;nan
23303;BME280;11820;48.738;9.092;2023-03-14T01:38:28;94633.00;;;11.26;nan
23303;BME280;11820;48.738;9.092;2023-03-14T01:40:54;94622.25;;;11.18;nan
23303;BME280;11820;48.738;9.092;2023-03-14T01:43:20;94617.59;;;10.98;nan
23303;BME280;11820;48.738;9.092;2023-03-14T01:48:25;94603.94;;;11.03;nan
23303;BME280;11820;48.738;9.092;2023-03-14T01:50:53;94592.88;;;11.07;nan
23303;BME280;11820;48.738;9.092;2023-03-14T01:53:18;94595.00;;;10.94;nan
23303;BME280;11820;48.738;9.092;2023-03-14T01:55:47;94603.09;;;10.97;nan
23303;BME280;11820;48.738;9.092;2023-03-14T01:58:14;94606.31;;;10.88;nan
23303;BME280;11820;48.738;9.092;2023-03-14T02:00:40;94603.00;;;10.92;nan
23303;BME280;11820;48.738;9.092;2023-03-14T02:03:13;94617.34;;;10.83;nan
23303;BME280;11820;48.738;9.092;2023-03-14T02:05:42;94615.41;;;10.90;nan
23303;BME280;11820;48.738;9.092;2023-03-14T02:08:11;94606.31;;;10.88;nan
23303;BME280;11820;48.738;9.092;2023-03-14T02:10:41;94607.72;;;10.79;nan
23303;BME280;11820;48.738;9.092;2023-03-14T02:13:08;94611.47;;;10.71;nan
23303;BME280;11820;48.738;9.092;2023-03-14T02:15:34;94611.53;;;10.76;nan
23303;BME280;11820;48.738;9.092;2023-03-14T02:18:01;94614.13;;;10.76;nan
23303;BME280;11820;48.738;9.092;2023-03-14T02:20:49;94590.78;;;10.88;nan
23303;BME280;11820;48.738;9.092;2023-03-14T02:23:27;94602.78;;;10.77;nan
23303;BME280;11820;48.738;9.092;2023-03-14T02:26:01;94588.28;;;10.76;nan
23303;BME280;11820;48.738;9.092;2023-03-14T02:28:28;94582.00;;;10.89;nan
23303;BME280;11820;48.738;9.092;2023-03-14T02:30:53;94580.44;;;10.71;nan
23303;BME280;11820;48.738;9.092;2023-03-14T02:33:20;94570.03;;;10.66;nan
23303;BME280;11820;48.738;9.092;2023-03-14T02:35:56;94564.31;;;10.81;nan
23303;BME280;11820;48.738;9.092;2023-03-14T02:41:36;94574.41;;;10.82;nan
23303;BME280;11820;48.738;9.092;2023-03-14T02:44:01;94567.44;;;10.83;nan
23303;BME280;11820;48.738;9.092;2023-03-14T02:46:27;94558.34;;;10.80;nan
23303;BME280;11820;48.738;9.092;2023-03-14T02:49:10;94568.69;;;10.80;nan
23303;BME280;11820;48.738;9.092;2023-03-14T02:51:37;94562.50;;;10.65;nan
23303;BME280;11820;48.738;9.092;2023-03-14T02:54:03;94543.84;;;10.79;nan
23303;BME280;11820;48.738;9.092;2023-03-14T02:56:28;94569.72;;;10.63;nan
23303;BME280;11820;48.738;9.092;2023-03-14T02:58:54;94534.88;;;10.65;nan
23303;BME280;11820;48.738;9.092;2023-03-14T03:01:19;94538.00;;;10.67;nan
23303;BME280;11820;48.738;9.092;2023-03-14T03:03:45;94535.34;;;10.62;nan
23303;BME280;11820;48.738;9.092;2023-03-14T03:06:10;94535.81;;;10.59;nan
23303;BME280;11820;48.738;9.092;2023-03-14T03:08:35;94521.09;;;10.43;nan
23303;BME280;11820;48.738;9.092;2023-03-14T03:11:01;94552.97;;;10.49;nan
23303;BME280;11820;48.738;9.092;2023-03-14T03:13:27;94523.41;;;10.45;nan
23303;BME280;11820;48.738;9.092;2023-03-14T03:15:52;94510.97;;;10.42;nan
23303;BME280;11820;48.738;9.092;2023-03-14T03:18:17;94499.94;;;10.46;nan
23303;BME280;11820;48.738;9.092;2023-03-14T03:20:43;94508.09;;;10.55;nan
23303;BME280;11820;48.738;9.092;2023-03-14T03:23:08;94517.97;;;10.41;nan
23303;BME280;11820;48.738;9.092;2023-03-14T03:25:34;94496.34;;;10.47;nan
23303;BME280;11820;48.738;9.092;2023-03-14T03:27:59;94499.63;;;10.43;nan
23303;BME280;11820;48.738;9.092;2023-03-14T03:30:28;94505.81;;;10.25;nan
23303;BME280;11820;48.738;9.092;2023-03-14T03:32:53;94491.59;;;10.39;nan
23303;BME280;11820;48.738;9.092;2023-03-14T03:35:18;94484.59;;;10.40;nan
23303;BME280;11820;48.738;9.092;2023-03-14T03:37:44;94482.50;;;10.37;nan
23303;BME280;11820;48.738;9.092;2023-03-14T03:40:10;94476.00;;;10.34;nan
23303;BME280;11820;48.738;9.092;2023-03-14T03:42:36;94469.09;;;10.23;nan
23303;BME280;11820;48.738;9.092;2023-03-14T03:45:01;94467.53;;;10.22;nan
23303;BME280;11820;48.738;9.092;2023-03-14T03:47:27;94474.81;;;10.25;nan
23303;BME280;11820;48.738;9.092;2023-03-14T03:49:53;94484.47;;;10.13;nan
23303;BME280;11820;48.738;9.092;2023-03-14T03:52:18;94463.88;;;10.18;nan
23303;BME280;11820;48.738;9.092;2023-03-14T03:54:43;94450.56;;;10.10;nan
23303;BME280;11820;48.738;9.092;2023-03-14T03:57:12;94477.72;;;10.12;nan
23303;BME280;11820;48.738;9.092;2023-03-14T03:59:37;94466.44;;;10.18;nan
23303;BME280;11820;48.738;9.092;2023-03-14T04:02:05;94462.78;;;10.14;nan
23303;BME280;11820;48.738;9.092;2023-03-14T04:04:30;94465.03;;;10.11;nan
23303;BME280;11820;48.738;9.092;2023-03-14T04:06:55;94454.78;;;10.16;nan
23303;BME280;11820;48.738;9.092;2023-03-14T04:09:21;94450.56;;;10.10;nan
23303;BME280;11820;48.738;9.092;2023-03-14T04:11:46;94451.91;;;10.12;nan
23303;BME280;11820;48.738;9.092;2023-03-14T04:14:11;94453.94;;;10.10;nan
23303;BME280;11820;48.738;9.092;2023-03-14T04:16:37;94448.53;;;10.12;nan
23303;BME280;11820;48.738;9.092;2023-03-14T04:19:02;94469.88;;;10.07;nan
23303;BME280;11820;48.738;9.092;2023-03-14T04:21:27;94444.38;;;10.11;nan
23303;BME280;11820;48.738;9.092;2023-03-14T04:23:53;94452.81;;;10.06;nan
23303;BME280;11820;48.738;9.092;2023-03-14T04:26:18;94459.91;;;9.99;nan
23303;BME280;11820;48.738;9.092;2023-03-14T04:28:44;94438.34;;;10.05;nan
23303;BME280;11820;48.738;9.092;2023-03-14T04:31:16;94440.53;;;9.97;nan
23303;BME280;11820;48.738;9.092;2023-03-14T04:33:41;94458.44;;;10.03;nan
23303;BME280;11820;48.738;9.092;2023-03-14T04:36:07;94453.88;;;9.94;nan
23303;BME280;11820;48.738;9.092;2023-03-14T04:38:33;94437.31;;;10.06;nan
23303;BME280;11820;48.738;9.092;2023-03-14T04:40:58;94438.59;;;10.04;nan
23303;BME280;11820;48.738;9.092;2023-03-14T04:43:24;94431.06;;;10.02;nan
23303;BME280;11820;48.738;9.092;2023-03-14T04:45:51;94429.84;;;10.05;nan
23303;BME280;11820;48.738;9.092;2023-03-14T04:48:16;94425.44;;;10.05;nan
23303;BME280;11820;48.738;9.092;2023-03-14T04:50:42;94418.59;;;9.99;nan
23303;BME280;11820;48.738;9.092;2023-03-14T04:53:07;94417.59;;;10.00;nan
23303;BME280;11820;48.738;9.092;2023-03-14T04:55:32;94414.47;;;9.98;nan
23303;BME280;11820;48.738;9.092;2023-03-14T04:57:58;94415.00;;;10.00;nan
23303;BME280;11820;48.738;9.092;2023-03-14T05:00:24;94403.50;;;9.91;nan
23303;BME280;11820;48.738;9.092;2023-03-14T05:02:49;94419.53;;;9.93;nan
23303;BME280;11820;48.738;9.092;2023-03-14T05:05:15;94398.34;;;9.91;nan
23303;BME280;11820;48.738;9.092;2023-03-14T05:07:40;94396.25;;;9.88;nan
23303;BME280;11820;48.738;9.092;2023-03-14T05:10:06;94401.41;;;9.88;nan
23303;BME280;11820;48.738;9.092;2023-03-14T05:12:31;94395.44;;;9.88;nan
23303;BME280;11820;48.738;9.092;2023-03-14T05:14:56;94392.72;;;9.94;nan
23303;BME280;11820;48.738;9.092;2023-03-14T05:17:22;94386.47;;;9.90;nan
23303;BME280;11820;48.738;9.092;2023-03-14T05:19:47;94392.25;;;9.97;nan
23303;BME280;11820;48.738;9.092;2023-03-14T05:22:12;94393.03;;;9.98;nan
23303;BME280;11820;48.738;9.092;2023-03-14T05:24:38;94390.44;;;9.98;nan
23303;BME280;11820;48.738;9.092;2023-03-14T05:27:04;94383.25;;;10.00;nan
23303;BME280;11820;48.738;9.092;2023-03-14T05:29:30;94387.47;;;9.89;nan
23303;BME280;11820;48.738;9.092;2023-03-14T05:31:55;94387.56;;;9.94;nan
23303;BME280;11820;48.738;9.092;2023-03-14T05:34:20;94383.16;;;9.95;nan
23303;BME280;11820;48.738;9.092;2023-03-14T05:36:46;94381.91;;;9.97;nan
23303;BME280;11820;48.738;9.092;2023-03-14T05:39:11;94362.91;;;10.03;nan
23303;BME280;11820;48.738;9.092;2023-03-14T05:41:37;94372.69;;;10.01;nan
23303;BME280;11820;48.738;9.092;2023-03-14T05:44:02;94357.66;;;9.98;nan
23303;BME280;11820;48.738;9.092;2023-03-14T05:46:28;94375.66;;;9.93;nan
23303;BME280;11820;48.738;9.092;2023-03-14T05:48:56;94353.91;;;9.89;nan
23303;BME280;11820;48.738;9.092;2023-03-14T05:51:21;94370.03;;;9.96;nan
23303;BME280;11820;48.738;9.092;2023-03-14T05:53:46;94368.75;;;9.82;nan
23303;BME280;11820;48.738;9.092;2023-03-14T05:56:12;94362.91;;;10.03;nan
23303;BME280;11820;48.738;9.092;2023-03-14T05:58:37;94359.78;;;10.01;nan
23303;BME280;11820;48.738;9.092;2023-03-14T06:01:04;94349.38;;;9.96;nan
23303;BME280;11820;48.738;9.092;2023-03-14T06:03:31;94350.56;;;10.05;nan
23303;BME280;11820;48.738;9.092;2023-03-14T06:05:56;94362.28;;;9.96;nan
23303;BME280;11820;48.738;9.092;2023-03-14T06:08:21;94368.88;;;9.87;nan
23303;BME280;11820;48.738;9.092;2023-03-14T06:10:47;94359.31;;;9.88;nan
23303;BME280;11820;48.738;9.092;2023-03-14T06:13:12;94361.81;;;9.99;nan
23303;BME280;11820;48.738;9.092;2023-03-14T06:15:37;94352.66;;;9.92;nan
23303;BME280;11820;48.738;9.092;2023-03-14T06:18:03;94347.00;;;9.95;nan
23303;BME280;11820;48.738;9.092;2023-03-14T06:20:28;94331.84;;;9.98;nan
23303;BME280;11820;48.738;9.092;2023-03-14T06:22:54;94335.06;;;10.05;nan
23303;BME280;11820;48.738;9.092;2023-03-14T06:25:19;94345.69;;;9.92;nan
23303;BME280;11820;48.738;9.092;2023-03-14T06:27:44;94342.03;;;9.88;nan
23303;BME280;11820;48.738;9.092;2023-03-14T06:30:10;94336.47;;;9.96;nan
23303;BME280;11820;48.738;9.092;2023-03-14T06:32:35;94348.13;;;9.99;nan
23303;BME280;11820;48.738;9.092;2023-03-14T06:35:01;94344.63;;;10.05;nan
23303;BME280;11820;48.738;9.092;2023-03-14T06:37:27;94359.16;;;9.94;nan
23303;BME280;11820;48.738;9.092;2023-03-14T06:39:53;94335.06;;;10.05;nan
23303;BME280;11820;48.738;9.092;2023-03-14T06:42:19;94354.47;;;9.91;nan
23303;BME280;11820;48.738;9.092;2023-03-14T06:44:44;94348.75;;;10.06;nan
23303;BME280;11820;48.738;9.092;2023-03-14T06:47:09;94339.84;;;10.13;nan
23303;BME280;11820;48.738;9.092;2023-03-14T06:49:35;94340.75;;;10.07;nan
23303;BME280;11820;48.738;9.092;2023-03-14T06:52:00;94332.03;;;10.08;nan
23303;BME280;11820;48.738;9.092;2023-03-14T06:54:25;94342.72;;;10.17;nan
23303;BME280;11820;48.738;9.092;2023-03-14T06:56:51;94351.09;;;10.24;nan
23303;BME280;11820;48.738;9.092;2023-03-14T06:59:16;94355.53;;;10.28;nan
23303;BME280;11820;48.738;9.092;2023-03-14T07:01:41;94369.72;;;10.26;nan
23303;BME280;11820;48.738;9.092;2023-03-14T07:04:06;94362.19;;;10.24;nan
23303;BME280;11820;48.738;9.092;2023-03-14T07:06:33;94359.66;;;10.29;nan
23303;BME280;11820;48.738;9.092;2023-03-14T07:08:58;94354.59;;;10.18;nan
23303;BME280;11820;48.738;9.092;2023-03-14T07:11:24;94365.59;;;10.46;nan
23303;BME280;11820;48.738;9.092;2023-03-14T07:13:50;94369.66;;;10.42;nan
23303;BME280;11820;48.738;9.092;2023-03-14T07:16:15;94363.59;;;10.32;nan
23303;BME280;11820;48.738;9.092;2023-03-14T07:18:41;94375.41;;;10.28;nan
23303;BME280;11820;48.738;9.092;2023-03-14T07:21:07;94369.06;;;10.35;nan
23303;BME280;11820;48.738;9.092;2023-03-14T07:23:34;94355.69;;;10.38;nan
23303;BME280;11820;48.738;9.092;2023-03-14T07:25:59;94390.09;;;10.44;nan
23303;BME280;11820;48.738;9.092;2023-03-14T07:28:25;94353.31;;;10.58;nan
23303;BME280;11820;48.738;9.092;2023-03-14T07:30:52;94368.53;;;10.55;nan
23303;BME280;11820;48.738;9.092;2023-03-14T07:33:17;94374.13;;;10.68;nan
23303;BME280;11820;48.738;9.092;2023-03-14T07:35:42;94375.16;;;10.67;nan
23303;BME280;11820;48.738;9.092;2023-03-14T07:38:08;94371.63;;;10.73;nan
23303;BME280;11820;48.738;9.092;2023-03-14T07:40:33;94389.00;;;10.78;nan
23303;BME280;11820;48.738;9.092;2023-03-14T07:42:58;94397.28;;;10.80;nan
23303;BME280;11820;48.738;9.092;2023-03-14T07:45:24;94391.03;;;10.97;nan
23303;BME280;11820;48.738;9.092;2023-03-14T07:47:49;94395.75;;;11.05;nan
23303;BME280;11820;48.738;9.092;2023-03-14T07:50:14;94394.19;;;11.04;nan
23303;BME280;11820;48.738;9.092;2023-03-14T07:52:40;94396.25;;;11.02;nan
23303;BME280;11820;48.738;9.092;2023-03-14T07:55:06;94404.56;;;11.04;nan
23303;BME280;11820;48.738;9.092;2023-03-14T07:57:31;94394.91;;;11.21;nan
23303;BME280;11820;48.738;9.092;2023-03-14T07:59:57;94385.72;;;11.35;nan
23303;BME280;11820;48.738;9.092;2023-03-14T08:02:22;94392.09;;;11.49;nan
23303;BME280;11820;48.738;9.092;2023-03-14T08:04:49;94405.06;;;11.54;nan
23303;BME280;11820;48.738;9.092;2023-03-14T08:07:15;94389.09;;;11.57;nan
23303;BME280;11820;48.738;9.092;2023-03-14T08:09:40;94395.75;;;11.53;nan
23303;BME280;11820;48.738;9.092;2023-03-14T08:12:06;94399.44;;;11.57;nan
23303;BME280;11820;48.738;9.092;2023-03-14T08:14:31;94385.81;;;11.66;nan
23303;BME280;11820;48.738;9.092;2023-03-14T08:16:57;94387.13;;;11.69;nan
23303;BME280;11820;48.738;9.092;2023-03-14T08:19:22;94390.25;;;11.71;nan
23303;BME280;11820;48.738;9.092;2023-03-14T08:21:48;94378.50;;;11.90;nan
23303;BME280;11820;48.738;9.092;2023-03-14T08:24:13;94387.78;;;11.86;nan
23303;BME280;11820;48.738;9.092;2023-03-14T08:26:38;94392.78;;;11.97;nan
23303;BME280;11820;48.738;9.092;2023-03-14T08:29:04;94394.19;;;12.10;nan
23303;BME280;11820;48.738;9.092;2023-03-14T08:31:30;94397.38;;;12.17;nan
23303;BME280;11820;48.738;9.092;2023-03-14T08:33:58;94386.75;;;12.23;nan
23303;BME280;11820;48.738;9.092;2023-03-14T08:36:23;94363.72;;;12.22;nan
23303;BME280;11820;48.738;9.092;2023-03-14T08:38:49;94388.63;;;11.96;nan
23303;BME280;11820;48.738;9.092;2023-03-14T08:41:14;94416.91;;;11.98;nan
23303;BME280;11820;48.738;9.092;2023-03-14T08:43:39;94414.66;;;12.06;nan
23303;BME280;11820;48.738;9.092;2023-03-14T08:46:05;94412.28;;;12.05;nan
23303;BME280;11820;48.738;9.092;2023-03-14T08:48:31;94418.47;;;11.99;nan
23303;BME280;11820;48.738;9.092;2023-03-14T08:50:57;94411.53;;;12.04;nan
23303;BME280;11820;48.738;9.092;2023-03-14T08:53:22;94417.97;;;12.02;nan
23303;BME280;11820;48.738;9.092;2023-03-14T08:55:52;94405.56;;;12.09;nan
23303;BME280;11820;48.738;9.092;2023-03-14T08:58:18;94433.78;;;12.00;nan
23303;BME280;11820;48.738;9.092;2023-03-14T09:00:44;94434.97;;;11.88;nan
23303;BME280;11820;48.738;9.092;2023-03-14T09:03:09;94417.22;;;11.75;nan
23303;BME280;11820;48.738;9.092;2023-03-14T09:05:34;94448.88;;;11.82;nan
23303;BME280;11820;48.738;9.092;2023-03-14T09:08:00;94447.41;;;11.64;nan
23303;BME280;11820;48.738;9.092;2023-03-14T09:10:25;94409.94;;;11.72;nan
23303;BME280;11820;48.738;9.092;2023-03-14T09:12:50;94450.84;;;11.70;nan
23303;BME280;11820;48.738;9.092;2023-03-14T09:15:16;94439.34;;;11.61;nan
23303;BME280;11820;48.738;9.092;2023-03-14T09:17:42;94458.38;;;11.50;nan
23303;BME280;11820;48.738;9.092;2023-03-14T09:20:09;94450.09;;;11.53;nan
23303;BME280;11820;48.738;9.092;2023-03-14T09:22:34;94453.56;;;11.85;nan
23303;BME280;11820;48.738;9.092;2023-03-14T09:25:01;94453.44;;;11.70;nan
23303;BME280;11820;48.738;9.092;2023-03-14T09:27:26;94452.22;;;11.77;nan
23303;BME280;11820;48.738;9.092;2023-03-14T09:29:52;94462.25;;;11.74;nan
23303;BME280;11820;48.738;9.092;2023-03-14T09:32:17;94457.97;;;11.84;nan
23303;BME280;11820;48.738;9.092;2023-03-14T09:34:42;94460.59;;;11.89;nan
23303;BME280;11820;48.738;9.092;2023-03-14T09:37:08;94458.34;;;11.71;nan
23303;BME280;11820;48.738;9.092;2023-03-14T09:39:33;94491.72;;;11.68;nan
23303;BME280;11820;48.738;9.092;2023-03-14T09:42:02;94483.66;;;11.64;nan
23303;BME280;11820;48.738;9.092;2023-03-14T09:44:36;94493.09;;;11.54;nan
23303;BME280;11820;48.738;9.092;2023-03-14T09:47:05;94486.06;;;11.49;nan
23303;BME280;11820;48.738;9.092;2023-03-14T09:49:34;94487.81;;;11.44;nan
23303;BME280;11820;48.738;9.092;2023-03-14T09:52:02;94481.97;;;11.53;nan
23303;BME280;11820;48.738;9.092;2023-03-14T09:56:56;94490.22;;;11.50;nan
23303;BME280;11820;48.738;9.092;2023-03-14T09:59:22;94500.81;;;11.49;nan
23303;BME280;11820;48.738;9.092;2023-03-14T10:01:47;94508.50;;;11.44;nan
23303;BME280;11820;48.738;9.092;2023-03-14T10:04:15;94481.25;;;11.58;nan
23303;BME280;11820;48.738;9.092;2023-03-14T10:06:42;94477.53;;;12.02;nan
23303;BME280;11820;48.738;9.092;2023-03-14T10:09:19;94469.03;;;12.38;nan
23303;BME280;11820;48.738;9.092;2023-03-14T10:11:53;94454.59;;;12.47;nan
23303;BME280;11820;48.738;9.092;2023-03-14T10:14:34;94449.06;;;12.75;nan
23303;BME280;11820;48.738;9.092;2023-03-14T10:17:11;94429.59;;;13.18;nan
23303;BME280;11820;48.738;9.092;2023-03-14T10:19:37;94450.28;;;13.03;nan
23303;BME280;11820;48.738;9.092;2023-03-14T10:22:15;94458.19;;;13.33;nan
23303;BME280;11820;48.738;9.092;2023-03-14T10:24:45;94470.53;;;13.06;nan
23303;BME280;11820;48.738;9.092;2023-03-14T10:27:22;94453.00;;;12.87;nan
23303;BME280;11820;48.738;9.092;2023-03-14T10:30:02;94437.78;;;12.54;nan
23303;BME280;11820;48.738;9.092;2023-03-14T10:32:38;94441.28;;;12.80;nan
23303;BME280;11820;48.738;9.092;2023-03-14T10:37:35;94440.16;;;13.02;nan
23303;BME280;11820;48.738;9.092;2023-03-14T10:40:03;94458.09;;;12.72;nan
23303;BME280;11820;48.738;9.092;2023-03-14T10:42:34;94444.38;;;12.72;nan
23303;BME280;11820;48.738;9.092;2023-03-14T10:45:06;94458.66;;;12.38;nan
23303;BME280;11820;48.738;9.092;2023-03-14T10:47:35;94445.97;;;12.41;nan
23303;BME280;11820;48.738;9.092;2023-03-14T10:50:29;94453.94;;;12.30;nan
23303;BME280;11820;48.738;9.092;2023-03-14T10:52:56;94461.16;;;12.23;nan
23303;BME280;11820;48.738;9.092;2023-03-14T10:55:24;94498.22;;;11.97;nan
23303;BME280;11820;48.738;9.092;2023-03-14T10:57:51;94462.47;;;11.94;nan
23303;BME280;11820;48.738;9.092;2023-03-14T11:00:22;94478.88;;;12.04;nan
23303;BME280;11820;48.738;9.092;2023-03-14T11:05:21;94475.59;;;11.87;nan
23303;BME280;11820;48.738;9.092;2023-03-14T11:07:52;94484.94;;;11.88;nan
23303;BME280;11820;48.738;9.092;2023-03-14T11:10:37;94497.03;;;11.83;nan
23303;BME280;11820;48.738;9.092;2023-03-14T11:21:46;94508.56;;;11.27;nan
23303;BME280;11820;48.738;9.092;2023-03-14T11:29:47;94497.69;;;11.26;nan
23303;BME280;11820;48.738;9.092;2023-03-14T11:32:36;94507.28;;;11.30;nan
23303;BME280;11820;48.738;9.092;2023-03-14T11:38:13;94532.56;;;11.23;nan
23303;BME280;11820;48.738;9.092;2023-03-14T11:40:40;94518.34;;;11.04;nan
23303;BME280;11820;48.738;9.092;2023-03-14T11:43:16;94506.69;;;11.23;nan
23303;BME280;11820;48.738;9.092;2023-03-14T11:45:44;94507.66;;;11.17;nan
23303;BME280;11820;48.738;9.092;2023-03-14T11:48:31;94520.06;;;11.15;nan
23303;BME280;11820;48.738;9.092;2023-03-14T11:51:02;94507.34;;;11.14;nan
23303;BME280;11820;48.738;9.092;2023-03-14T11:53:59;94513.44;;;11.24;nan
23303;BME280;11820;48.738;9.092;2023-03-14T11:56:41;94511.88;;;11.23;nan
23303;BME280;11820;48.738;9.092;2023-03-14T11:59:25;94538.13;;;11.53;nan
23303;BME280;11820;48.738;9.092;2023-03-14T12:01:55;94540.88;;;11.25;nan
23303;BME280;11820;48.738;9.092;2023-03-14T12:07:20;94548.06;;;11.02;nan
23303;BME280;11820;48.738;9.092;2023-03-14T12:09:47;94551.44;;;11.02;nan
23303;BME280;11820;48.738;9.092;2023-03-14T12:12:19;94562.78;;;11.01;nan
23303;BME280;11820;48.738;9.092;2023-03-14T12:14:53;94566.00;;;11.08;nan
23303;BME280;11820;48.738;9.092;2023-03-14T12:17:21;94584.72;;;11.15;nan
23303;BME280;11820;48.738;9.092;2023-03-14T12:20:00;94585.34;;;11.60;nan
23303;BME280;11820;48.738;9.092;2023-03-14T12:22:32;94607.06;;;12.02;nan
23303;BME280;11820;48.738;9.092;2023-03-14T12:25:15;94614.00;;;11.75;nan
23303;BME280;11820;48.738;9.092;2023-03-14T12:27:49;94622.91;;;11.25;nan
23303;BME280;11820;48.738;9.092;2023-03-14T12:30:31;94620.78;;;10.89;nan
23303;BME280;11820;48.738;9.092;2023-03-14T12:33:27;94615.75;;;11.69;nan
23303;BME280;11820;48.738;9.092;2023-03-14T12:35:58;94622.09;;;13.52;nan
23303;BME280;11820;48.738;9.092;2023-03-14T12:38:43;94620.78;;;13.44;nan
23303;BME280;11820;48.738;9.092;2023-03-14T12:41:36;94625.34;;;14.35;nan
23303;BME280;11820;48.738;9.092;2023-03-14T12:44:38;94630.06;;;14.43;nan
23303;BME280;11820;48.738;9.092;2023-03-14T12:49:53;94668.91;;;14.99;nan
23303;BME280;11820;48.738;9.092;2023-03-14T12:52:36;94696.50;;;15.00;nan
23303;BME280;11820;48.738;9.092;2023-03-14T12:55:21;94682.66;;;14.80;nan
23303;BME280;11820;48.738;9.092;2023-03-14T12:57:59;94702.00;;;15.44;nan
23303;BME280;11820;48.738;9.092;2023-03-14T13:00:34;94730.03;;;14.87;nan
23303;BME280;11820;48.738;9.092;2023-03-14T13:03:12;94717.59;;;14.23;nan
23303;BME280;11820;48.738;9.092;2023-03-14T13:05:54;94732.66;;;13.74;nan
23303;BME280;11820;48.738;9.092;2023-03-14T13:10:57;94766.66;;;12.03;nan
23303;BME280;11820;48.738;9.092;2023-03-14T13:13:25;94776.25;;;11.20;nan
23303;BME280;11820;48.738;9.092;2023-03-14T13:15:56;94822.63;;;11.10;nan
23303;BME280;11820;48.738;9.092;2023-03-14T13:21:20;94836.53;;;11.48;nan
23303;BME280;11820;48.738;9.092;2023-03-14T13:26:20;94831.34;;;10.53;nan
23303;BME280;11820;48.738;9.092;2023-03-14T13:28:46;94854.25;;;10.73;nan
23303;BME280;11820;48.738;9.092;2023-03-14T13:31:25;94856.03;;;10.72;nan
23303;BME280;11820;48.738;9.092;2023-03-14T13:34:02;94857.09;;;10.99;nan
23303;BME280;11820;48.738;9.092;2023-03-14T13:36:29;94864.13;;;10.76;nan
23303;BME280;11820;48.738;9.092;2023-03-14T13:39:00;94868.00;;;10.39;nan
23303;BME280;11820;48.738;9.092;2023-03-14T13:41:27;94874.75;;;10.05;nan
23303;BME280;11820;48.738;9.092;2023-03-14T13:43:58;94885.38;;;9.97;nan
23303;BME280;11820;48.738;9.092;2023-03-14T13:46:25;94906.47;;;9.94;nan
23303;BME280;11820;48.738;9.092;2023-03-14T13:49:03;94909.78;;;10.13;nan
23303;BME280;11820;48.738;9.092;2023-03-14T13:51:30;94911.25;;;10.09;nan
23303;BME280;11820;48.738;9.092;2023-03-14T13:53:58;94924.13;;;9.97;nan
23303;BME280;11820;48.738;9.092;2023-03-14T13:56:29;94929.56;;;10.19;nan
23303;BME280;11820;48.738;9.092;2023-03-14T13:58:55;94956.28;;;10.13;nan
23303;BME280;11820;48.738;9.092;2023-03-14T14:01:30;94943.25;;;10.19;nan
23303;BME280;11820;48.738;9.092;2023-03-14T14:03:57;94960.66;;;10.01;nan
23303;BME280;11820;48.738;9.092;2023-03-14T14:06:31;94939.38;;;9.87;nan
23303;BME280;11820;48.738;9.092;2023-03-14T14:08:59;94970.19;;;9.82;nan
23303;BME280;11820;48.738;9.092;2023-03-14T14:13:58;94987.84;;;9.56;nan